Time;durP1;ratioP1;P1;durP2;ratioP2;P2;SDS_P1;SDS_P2;PMS_P1;PMS_P2;Temp;Humidity;BMP_temperature;BMP_pressure;BME280_temperature;BME280_humidity;BME280_pressure;Samples;Min_cycle;Max_cycle;Signal;HPM_P1;HPM_P2
2023/01/09 00:02:35;;;;;;;;;59.20;47.00;;;;;9.16;56.73;97721.94;6299927;27;96564;-61
2023/01/09 00:05:39;;;;;;;;;59.00;46.60;;;;;9.10;56.50;97713.78;6306153;27;97011;-62
2023/01/09 00:08:43;;;;;;;;;61.00;48.00;;;;;9.03;56.77;97706.91;6303980;27;96233;-62
2023/01/09 00:11:47;;;;;;;;;59.20;46.20;;;;;8.94;56.74;97717.22;6313549;27;96305;-62
2023/01/09 00:14:51;;;;;;;;;60.80;48.00;;;;;8.88;56.64;97718.19;6312914;27;96205;-61
2023/01/09 00:17:54;;;;;;;;;61.50;47.75;;;;;8.77;56.79;97699.41;6290944;27;96829;-61
2023/01/09 00:20:59;;;;;;;;;60.40;46.00;;;;;8.82;56.92;97710.25;6289808;27;96313;-61
2023/01/09 00:24:05;;;;;;;;;60.80;46.40;;;;;8.81;57.00;97704.06;6295197;27;96303;-61
2023/01/09 00:27:08;;;;;;;;;56.40;44.20;;;;;8.75;57.30;97702.34;6315143;27;96289;-61
2023/01/09 00:30:12;;;;;;;;;56.80;45.20;;;;;8.74;57.03;97705.28;6274239;27;96633;-61
2023/01/09 00:33:15;;;;;;;;;57.75;44.75;;;;;8.67;57.52;97700.84;6293556;27;96262;-61
2023/01/09 00:36:19;;;;;;;;;60.80;48.00;;;;;8.62;57.43;97697.25;6310189;27;97205;-61
2023/01/09 00:39:23;;;;;;;;;57.20;46.20;;;;;8.60;57.30;97694.78;6313286;27;96518;-61
2023/01/09 00:42:32;;;;;;;;;56.00;44.60;;;;;8.57;57.18;97703.34;6297288;27;96249;-60
2023/01/09 00:45:35;;;;;;;;;58.00;46.00;;;;;8.54;57.40;97703.00;6289242;27;97167;-60
2023/01/09 00:48:41;;;;;;;;;56.25;45.25;;;;;8.50;57.39;97708.00;6288128;27;96344;-61
2023/01/09 00:51:45;;;;;;;;;55.00;45.00;;;;;8.44;57.73;97700.91;6306520;27;96234;-61
2023/01/09 00:54:50;;;;;;;;;55.40;45.00;;;;;8.43;57.34;97703.84;6295206;27;96682;-60
2023/01/09 00:57:53;;;;;;;;;55.60;44.00;;;;;8.38;57.67;97699.16;6302866;27;96769;-60
2023/01/09 01:00:57;;;;;;;;;53.25;42.75;;;;;8.36;57.87;97698.56;6290217;27;97573;-60
2023/01/09 01:07:37;;;;;;;;;52.67;43.00;;;;;8.25;57.95;97686.81;6307050;27;96835;-61
2023/01/09 01:07:38;;;;;;;;;56.80;44.00;;;;;8.38;58.25;97692.97;6291880;27;96346;-60
2023/01/09 01:10:43;;;;;;;;;56.00;44.00;;;;;8.38;58.02;97682.25;6304982;27;96617;-60
2023/01/09 01:13:47;;;;;;;;;53.80;43.80;;;;;8.35;57.88;97669.31;6312921;27;96080;-60
2023/01/09 01:16:50;;;;;;;;;55.40;44.60;;;;;8.36;57.57;97687.84;6304083;27;97013;-61
2023/01/09 01:19:54;;;;;;;;;52.80;43.40;;;;;8.31;57.53;97663.56;6290017;27;96197;-60
2023/01/09 01:22:57;;;;;;;;;59.00;46.00;;;;;8.38;57.09;97679.56;6288673;27;96463;-59
2023/01/09 01:26:06;;;;;;;;;53.75;42.75;;;;;8.35;57.22;97672.81;6293448;27;96316;-61
2023/01/09 01:29:10;;;;;;;;;56.00;45.00;;;;;8.35;57.01;97680.03;6312721;27;96255;-61
2023/01/09 01:32:13;;;;;;;;;53.00;43.00;;;;;8.32;56.93;97667.88;6281719;27;96885;-60
2023/01/09 01:35:17;;;;;;;;;57.00;45.00;;;;;8.31;57.30;97663.56;6299391;27;96412;-60
2023/01/09 01:38:20;;;;;;;;;53.00;43.00;;;;;8.28;57.57;97658.66;6300046;27;96726;-61
2023/01/09 01:41:29;;;;;;;;;52.80;43.00;;;;;8.32;57.54;97654.47;6288458;27;96173;-60
2023/01/09 01:44:59;;;;;;;;;50.75;41.00;;;;;8.32;57.28;97641.03;6304194;27;96546;-62
2023/01/09 01:48:07;;;;;;;;;57.00;44.80;;;;;8.31;56.92;97646.66;6298268;27;96899;-61
2023/01/09 01:51:13;;;;;;;;;55.00;44.00;;;;;8.19;57.15;97623.31;6288598;27;96289;-59
2023/01/09 01:54:23;;;;;;;;;53.00;43.00;;;;;8.25;56.92;97651.06;6288030;27;96230;-60
2023/01/09 01:57:28;;;;;;;;;53.00;43.00;;;;;8.23;57.04;97659.34;6312601;27;96222;-60
2023/01/09 02:00:37;;;;;;;;;52.00;43.00;;;;;8.23;57.22;97629.00;6313868;27;96409;-61
2023/01/09 02:03:42;;;;;;;;;58.00;46.00;;;;;8.07;57.16;97613.63;6306670;27;97154;-60
2023/01/09 02:06:48;;;;;;;;;53.40;43.80;;;;;8.11;57.36;97638.97;6311228;27;96851;-60
2023/01/09 02:09:51;;;;;;;;;54.20;44.00;;;;;8.19;57.18;97650.16;6302842;27;97422;-63
2023/01/09 02:12:56;;;;;;;;;52.00;42.00;;;;;8.19;57.62;97633.22;6306436;27;96241;-60
2023/01/09 02:16:14;;;;;;;;;52.00;42.00;;;;;8.17;57.80;97638.00;6292044;27;96941;-61
2023/01/09 02:19:45;;;;;;;;;55.00;44.00;;;;;8.18;58.05;97645.00;6297659;27;96228;-61
2023/01/09 02:23:03;;;;;;;;;52.00;42.00;;;;;8.14;58.17;97633.13;6298487;27;97508;-61
2023/01/09 02:26:34;;;;;;;;;50.00;41.00;;;;;8.17;57.86;97638.81;6307880;27;97867;-61
2023/01/09 02:30:31;;;;;;;;;50.00;41.00;;;;;8.12;57.59;97630.66;6304725;27;96521;-60
2023/01/09 02:33:47;;;;;;;;;57.25;45.25;;;;;8.09;57.33;97627.63;6291664;27;96894;-61
2023/01/09 02:36:59;;;;;;;;;57.20;44.80;;;;;8.07;57.18;97633.22;6292469;27;96759;-61
2023/01/09 02:40:09;;;;;;;;;56.00;44.00;;;;;8.02;57.16;97635.00;6293602;27;96411;-60
2023/01/09 02:43:13;;;;;;;;;54.60;43.00;;;;;7.98;57.15;97626.59;6291600;27;96279;-61
2023/01/09 02:46:22;;;;;;;;;53.60;44.00;;;;;7.94;57.45;97625.44;6296668;27;96262;-60
2023/01/09 02:49:25;;;;;;;;;54.20;41.60;;;;;7.89;57.04;97617.28;6302543;27;96261;-60
2023/01/09 02:52:48;;;;;;;;;56.00;44.00;;;;;7.97;57.39;97622.28;6311115;27;96229;-59
2023/01/09 02:56:03;;;;;;;;;53.00;44.00;;;;;7.87;57.68;97618.59;6289994;27;97178;-61
2023/01/09 02:59:19;;;;;;;;;56.60;45.60;;;;;7.93;57.68;97625.66;6278912;27;98394;-59
2023/01/09 03:02:43;;;;;;;;;58.00;46.00;;;;;7.85;57.38;97624.19;6295717;27;96286;-60
2023/01/09 03:05:56;;;;;;;;;55.40;44.20;;;;;7.88;57.22;97642.47;6314071;27;96240;-60
2023/01/09 03:09:04;;;;;;;;;59.25;46.00;;;;;7.78;57.52;97651.13;6302175;27;96257;-61
2023/01/09 03:12:15;;;;;;;;;57.00;44.00;;;;;7.83;57.70;97648.56;6311682;27;97376;-61
2023/01/09 03:15:23;;;;;;;;;58.60;46.00;;;;;7.87;57.77;97643.53;6327615;27;96850;-60
2023/01/09 03:18:31;;;;;;;;;60.33;47.00;;;;;7.86;57.74;97630.38;6298445;27;96670;-60
2023/01/09 03:21:35;;;;;;;;;58.00;46.00;;;;;7.84;57.51;97625.22;6308828;27;96565;-60
2023/01/09 03:24:39;;;;;;;;;56.80;46.00;;;;;7.82;57.51;97646.91;6303287;27;96957;-62
2023/01/09 03:27:42;;;;;;;;;58.60;46.00;;;;;7.73;57.83;97629.53;6295603;27;96789;-61
2023/01/09 03:30:46;;;;;;;;;56.25;45.25;;;;;7.60;57.57;97616.38;6308504;27;96311;-60
2023/01/09 03:33:51;;;;;;;;;56.80;46.00;;;;;7.66;58.19;97633.41;6292967;27;96197;-61
2023/01/09 03:36:54;;;;;;;;;59.20;45.00;;;;;7.64;58.94;97617.53;6303972;27;96397;-59
2023/01/09 03:39:58;;;;;;;;;58.00;46.00;;;;;7.66;58.16;97618.13;6315078;27;96951;-60
2023/01/09 03:43:01;;;;;;;;;57.00;45.60;;;;;7.67;58.43;97606.31;6310316;27;96396;-60
2023/01/09 03:46:04;;;;;;;;;52.60;41.80;;;;;7.76;58.31;97594.22;6293053;27;96248;-60
2023/01/09 03:49:09;;;;;;;;;57.80;45.80;;;;;7.80;58.09;97594.56;6290760;27;96214;-62
2023/01/09 03:52:13;;;;;;;;;60.00;45.00;;;;;7.37;59.53;97598.44;6297044;27;96257;-60
2023/01/09 03:55:16;;;;;;;;;56.40;46.00;;;;;7.45;59.52;97591.06;6298986;27;96191;-60
2023/01/09 03:58:21;;;;;;;;;58.00;47.00;;;;;7.53;59.27;97599.56;6311890;27;96845;-60
2023/01/09 04:01:25;;;;;;;;;56.40;43.80;;;;;7.55;59.56;97604.72;6307830;27;96430;-60
2023/01/09 04:04:29;;;;;;;;;58.50;46.25;;;;;7.58;59.91;97588.13;6308705;27;96291;-60
2023/01/09 04:07:33;;;;;;;;;56.00;45.00;;;;;7.64;59.40;97571.13;6308761;27;96615;-60
2023/01/09 04:10:37;;;;;;;;;58.00;45.00;;;;;7.68;58.99;97570.41;6290456;27;96388;-60
2023/01/09 04:13:41;;;;;;;;;57.00;46.00;;;;;7.71;59.35;97561.91;6302165;27;98162;-61
2023/01/09 04:16:44;;;;;;;;;56.75;45.50;;;;;7.71;59.65;97558.41;6304050;27;96936;-60
2023/01/09 04:19:49;;;;;;;;;57.00;45.60;;;;;7.75;59.52;97554.19;6311439;27;96325;-60
2023/01/09 04:22:52;;;;;;;;;56.20;43.00;;;;;7.83;60.44;97551.16;6300016;27;97006;-60
2023/01/09 04:25:56;;;;;;;;;51.50;42.25;;;;;7.91;61.08;97531.19;6298846;27;96870;-60
2023/01/09 04:29:00;;;;;;;;;54.40;43.00;;;;;7.91;61.43;97560.72;6301492;27;97513;-60
2023/01/09 04:32:03;;;;;;;;;53.80;44.00;;;;;7.81;61.83;97543.34;6307998;27;96601;-60
2023/01/09 04:35:09;;;;;;;;;53.40;44.00;;;;;7.86;62.06;97539.97;6296915;27;97146;-62
2023/01/09 04:38:12;;;;;;;;;56.60;45.00;;;;;7.92;61.83;97536.31;6305236;27;96985;-61
2023/01/09 04:41:47;;;;;;;;;53.00;43.00;;;;;8.01;61.56;97534.91;6288795;27;96353;-61
2023/01/09 04:44:39;;;;;;;;;52.00;41.50;;;;;8.06;61.63;97539.56;6300473;27;96213;-60
2023/01/09 04:47:43;;;;;;;;;52.00;42.50;;;;;8.04;61.02;97521.00;6297118;27;96373;-62
2023/01/09 04:50:48;;;;;;;;;49.20;40.80;;;;;8.17;61.08;97530.63;6309692;27;96798;-61
2023/01/09 04:53:51;;;;;;;;;55.00;43.00;;;;;8.23;60.67;97524.31;6293859;27;97515;-61
2023/01/09 04:56:55;;;;;;;;;54.33;43.00;;;;;8.28;60.55;97519.84;6289757;27;97193;-61
2023/01/09 04:59:58;;;;;;;;;50.20;40.20;;;;;8.34;60.44;97511.91;6287982;27;96061;-62
2023/01/09 05:03:02;;;;;;;;;51.20;41.20;;;;;8.45;60.21;97503.81;6299548;27;97367;-60
2023/01/09 05:06:08;;;;;;;;;44.40;36.20;;;;;8.58;60.73;97505.38;6298430;27;96862;-60
2023/01/09 05:09:11;;;;;;;;;43.25;35.25;;;;;8.73;60.48;97494.06;6307363;27;97047;-62
2023/01/09 05:12:15;;;;;;;;;49.00;38.40;;;;;8.90;60.00;97506.44;6313012;27;96545;-61
2023/01/09 05:15:19;;;;;;;;;47.40;37.00;;;;;8.99;59.60;97510.34;6311510;27;98535;-61
2023/01/09 05:18:22;;;;;;;;;48.00;38.00;;;;;8.86;58.82;97477.63;6312408;27;96776;-61
2023/01/09 05:21:27;;;;;;;;;46.00;37.60;;;;;8.95;58.67;97495.78;6301453;27;96782;-61
2023/01/09 05:24:30;;;;;;;;;48.50;39.00;;;;;9.07;58.77;97503.75;6295709;27;96661;-60
2023/01/09 05:27:34;;;;;;;;;47.80;38.20;;;;;9.12;58.91;97490.41;6302428;27;97208;-61
2023/01/09 05:30:37;;;;;;;;;44.80;36.00;;;;;9.24;58.65;97499.16;6309388;27;96196;-61
2023/01/09 05:33:40;;;;;;;;;45.00;36.60;;;;;9.30;58.46;97502.75;6313429;27;96874;-61
2023/01/09 05:36:45;;;;;;;;;48.80;39.20;;;;;9.36;58.30;97509.84;6315661;27;98590;-60
2023/01/09 05:39:48;;;;;;;;;47.40;38.20;;;;;9.40;58.01;97502.88;6305535;27;97121;-61
2023/01/09 05:42:52;;;;;;;;;45.20;38.00;;;;;9.41;58.37;97501.84;6297007;27;96474;-61
2023/01/09 05:45:55;;;;;;;;;48.00;39.50;;;;;9.44;57.93;97504.84;6317575;27;96251;-60
2023/01/09 05:48:59;;;;;;;;;49.00;40.00;;;;;9.40;57.63;97498.34;6301142;27;96596;-63
2023/01/09 05:52:04;;;;;;;;;49.60;40.60;;;;;9.44;57.58;97488.69;6306162;27;96230;-61
2023/01/09 05:55:08;;;;;;;;;48.60;39.00;;;;;9.45;57.35;97495.72;6311435;27;96224;-61
2023/01/09 05:58:12;;;;;;;;;52.80;41.60;;;;;9.42;57.24;97492.72;6303550;27;98711;-61
2023/01/09 06:01:15;;;;;;;;;48.20;40.00;;;;;9.44;57.28;97488.69;6295087;27;96392;-61
2023/01/09 06:04:19;;;;;;;;;49.25;41.00;;;;;9.51;57.08;97488.53;6313090;27;96490;-61
2023/01/09 06:07:24;;;;;;;;;53.00;43.00;;;;;9.49;56.84;97488.78;6315358;27;96570;-61
2023/01/09 06:10:27;;;;;;;;;50.40;39.00;;;;;9.50;57.02;97482.34;6310829;27;97353;-61
2023/01/09 06:13:30;;;;;;;;;48.00;39.40;;;;;9.55;56.95;97481.59;6314837;27;97415;-62
2023/01/09 06:16:34;;;;;;;;;45.00;37.60;;;;;9.61;56.93;97469.84;6311480;27;96220;-62
2023/01/09 06:19:37;;;;;;;;;47.00;37.40;;;;;9.71;56.91;97471.84;6312541;27;96421;-62
2023/01/09 06:22:43;;;;;;;;;46.40;38.00;;;;;9.71;56.66;97466.44;6310549;27;96374;-60
2023/01/09 06:25:46;;;;;;;;;49.25;37.00;;;;;9.90;56.69;97476.66;6305629;27;96836;-61
2023/01/09 06:28:50;;;;;;;;;45.20;36.20;;;;;9.96;56.84;97480.22;6306729;27;96995;-64
2023/01/09 06:31:53;;;;;;;;;40.80;34.40;;;;;10.00;57.08;97473.25;6307717;27;97587;-62
2023/01/09 06:34:56;;;;;;;;;36.40;32.40;;;;;10.02;57.24;97471.09;6309776;27;97104;-62
2023/01/09 06:38:02;;;;;;;;;36.75;31.25;;;;;9.99;57.39;97453.59;6309386;27;96220;-61
2023/01/09 06:41:06;;;;;;;;;28.80;25.60;;;;;10.16;58.00;97456.25;6294142;27;96503;-62
2023/01/09 06:44:09;;;;;;;;;26.20;23.00;;;;;10.29;58.62;97474.69;6304663;27;96530;-62
2023/01/09 06:47:13;;;;;;;;;23.50;21.00;;;;;10.45;58.58;97474.84;6306732;27;98536;-64
2023/01/09 06:50:17;;;;;;;;;17.00;15.00;;;;;10.50;58.11;97443.38;6307554;27;96452;-61
2023/01/09 06:53:22;;;;;;;;;16.00;13.75;;;;;10.81;57.89;97466.78;6311737;27;97220;-62
2023/01/09 06:56:25;;;;;;;;;13.80;12.20;;;;;10.94;57.61;97467.44;6308718;27;96838;-61
2023/01/09 06:59:29;;;;;;;;;12.00;11.00;;;;;11.12;57.29;97469.72;6310391;27;96651;-63
2023/01/09 07:02:32;;;;;;;;;15.40;14.40;;;;;11.30;56.68;97472.81;6307447;27;98726;-63
2023/01/09 07:05:40;;;;;;;;;12.60;11.60;;;;;11.27;56.64;97470.63;6315848;27;96557;-61
2023/01/09 07:08:45;;;;;;;;;15.00;14.00;;;;;11.30;56.44;97462.00;6307468;27;96327;-62
2023/01/09 07:11:50;;;;;;;;;11.50;10.50;;;;;11.53;56.14;97468.88;6305494;27;96773;-63
2023/01/09 07:14:53;;;;;;;;;13.00;12.80;;;;;11.58;55.90;97468.13;6306506;27;96502;-62
2023/01/09 07:17:59;;;;;;;;;12.00;11.00;;;;;11.64;55.30;97469.75;6287515;27;96904;-61
2023/01/09 07:21:02;;;;;;;;;13.00;11.00;;;;;11.83;55.14;97467.41;6307914;27;96431;-61
2023/01/09 07:24:07;;;;;;;;;11.00;10.00;;;;;11.82;54.90;97463.94;6314001;27;96361;-62
2023/01/09 07:27:11;;;;;;;;;10.75;9.50;;;;;11.99;54.48;97466.41;6312963;27;96634;-62
2023/01/09 07:30:15;;;;;;;;;9.00;9.00;;;;;12.09;53.79;97472.66;6314005;27;96525;-61
2023/01/09 07:33:18;;;;;;;;;10.00;9.00;;;;;12.31;52.96;97467.06;6289686;27;96863;-62
2023/01/09 07:36:22;;;;;;;;;8.00;8.00;;;;;12.34;52.33;97468.41;6294484;27;96957;-60
2023/01/09 07:39:27;;;;;;;;;11.60;11.00;;;;;12.44;52.43;97460.31;6315485;27;96391;-62
2023/01/09 07:42:31;;;;;;;;;10.20;9.60;;;;;12.52;52.54;97470.59;6301653;27;96897;-61
2023/01/09 07:45:36;;;;;;;;;12.40;10.60;;;;;12.62;51.76;97478.72;6303055;27;98498;-61
2023/01/09 07:48:44;;;;;;;;;14.00;12.00;;;;;12.74;51.53;97468.47;6291084;27;96340;-60
2023/01/09 07:51:52;;;;;;;;;12.00;11.00;;;;;12.75;51.33;97458.47;6291629;27;96155;-61
2023/01/09 07:55:06;;;;;;;;;12.40;11.40;;;;;12.93;51.21;97485.78;6292159;27;96296;-61
2023/01/09 07:58:10;;;;;;;;;12.00;11.20;;;;;12.97;51.15;97477.91;6291156;27;96653;-61
2023/01/09 08:01:14;;;;;;;;;12.20;10.20;;;;;13.04;50.86;97481.16;6293840;27;96897;-60
2023/01/09 08:04:17;;;;;;;;;14.00;12.00;;;;;13.10;50.69;97477.34;6306915;27;96867;-62
2023/01/09 08:07:21;;;;;;;;;14.00;12.00;;;;;13.15;50.57;97476.56;6295778;27;97091;-61
2023/01/09 08:10:25;;;;;;;;;11.00;10.00;;;;;13.14;50.20;97469.56;6291061;27;96400;-61
2023/01/09 08:13:29;;;;;;;;;13.20;11.60;;;;;13.11;50.08;97468.19;6290484;27;96220;-60
2023/01/09 08:16:32;;;;;;;;;8.50;8.00;;;;;13.09;50.19;97439.78;6302780;27;96724;-62
2023/01/09 08:19:36;;;;;;;;;10.00;9.80;;;;;13.21;50.13;97457.34;6300872;27;96373;-62
2023/01/09 08:22:40;;;;;;;;;11.00;10.00;;;;;13.26;50.07;97462.75;6303561;27;96305;-61
2023/01/09 08:25:45;;;;;;;;;13.00;12.00;;;;;13.34;49.84;97461.41;6301903;27;97861;-61
2023/01/09 08:28:48;;;;;;;;;12.00;11.60;;;;;13.36;49.42;97454.63;6303614;27;96891;-61
2023/01/09 08:31:52;;;;;;;;;12.00;12.00;;;;;13.44;49.12;97459.47;6303789;27;96440;-61
2023/01/09 08:34:55;;;;;;;;;10.20;10.00;;;;;13.48;49.07;97456.22;6302176;27;96332;-60
2023/01/09 08:37:58;;;;;;;;;10.00;10.00;;;;;13.56;49.13;97453.75;6305807;27;96033;-61
2023/01/09 08:47:04;;;;;;;;;12.00;11.00;;;;;13.61;49.19;97450.22;6303372;27;96506;-62
2023/01/09 08:47:47;;;;;;;;;9.00;8.60;;;;;13.82;48.04;97452.59;6303194;27;96546;-63
2023/01/09 08:50:53;;;;;;;;;9.00;8.00;;;;;13.95;48.04;97448.47;6302702;27;96568;-61
2023/01/09 08:53:56;;;;;;;;;9.00;8.00;;;;;13.86;46.94;97450.94;6300895;27;96364;-62
2023/01/09 08:57:01;;;;;;;;;10.00;9.25;;;;;14.05;47.43;97445.72;6298261;27;97175;-61
2023/01/09 09:00:05;;;;;;;;;11.00;11.00;;;;;13.98;47.68;97449.78;6300569;27;96510;-61
2023/01/09 09:03:10;;;;;;;;;8.00;8.00;;;;;14.00;47.28;97445.72;6300096;27;96396;-61
2023/01/09 09:06:13;;;;;;;;;10.00;10.00;;;;;14.01;47.78;97446.56;6295649;27;96386;-61
2023/01/09 09:09:16;;;;;;;;;10.00;8.80;;;;;13.89;48.03;97436.03;6307422;27;96646;-61
2023/01/09 09:12:22;;;;;;;;;12.60;11.60;;;;;13.71;48.05;97433.94;6297534;27;96348;-61
2023/01/09 09:15:26;;;;;;;;;13.50;11.00;;;;;13.49;48.79;97430.78;6308691;27;97110;-62
2023/01/09 09:18:29;;;;;;;;;11.00;11.00;;;;;13.38;49.19;97435.41;6299277;27;96531;-62
2023/01/09 09:21:33;;;;;;;;;12.00;12.00;;;;;13.28;49.63;97435.44;6300200;27;96249;-62
2023/01/09 09:24:36;;;;;;;;;11.80;11.20;;;;;12.94;50.85;97435.19;6297346;27;96350;-61
2023/01/09 09:27:42;;;;;;;;;12.00;12.00;;;;;12.93;50.90;97428.16;6296619;27;96732;-61
2023/01/09 09:30:45;;;;;;;;;14.00;13.00;;;;;13.05;50.73;97422.47;6294224;27;96271;-60
2023/01/09 09:33:48;;;;;;;;;11.00;9.00;;;;;12.90;51.06;97418.66;6295148;27;96728;-61
2023/01/09 09:36:52;;;;;;;;;7.00;7.00;;;;;13.14;50.60;97413.56;6298300;27;96858;-60
2023/01/09 09:39:55;;;;;;;;;7.80;7.80;;;;;13.20;50.27;97411.63;6315227;27;96263;-60
2023/01/09 09:46:47;;;;;;;;;7.00;7.00;;;;;13.56;49.64;97393.38;6314607;27;96384;-61
2023/01/09 09:50:02;;;;;;;;;7.00;6.40;;;;;13.81;49.36;97396.00;6305548;27;96599;-62
2023/01/09 09:53:10;;;;;;;;;8.33;7.67;;;;;13.97;48.75;97384.00;6292202;27;98423;-61
2023/01/09 09:56:18;;;;;;;;;9.00;8.00;;;;;14.01;48.26;97393.16;6310545;27;96863;-61
2023/01/09 09:59:27;;;;;;;;;8.60;8.00;;;;;14.20;48.43;97394.13;6290683;27;96450;-60
2023/01/09 10:02:38;;;;;;;;;12.40;11.40;;;;;14.44;48.70;97407.81;6291260;27;97959;-62
2023/01/09 10:05:45;;;;;;;;;25.00;23.00;;;;;14.54;48.28;97405.03;6299823;27;96361;-62
2023/01/09 10:08:55;;;;;;;;;23.75;22.25;;;;;14.52;48.14;97409.94;6297728;27;96358;-61
2023/01/09 10:12:05;;;;;;;;;29.00;24.00;;;;;14.56;47.56;97413.69;6299681;27;96464;-61
2023/01/09 10:15:16;;;;;;;;;23.00;22.00;;;;;14.51;47.91;97400.19;6300152;27;96378;-63
2023/01/09 10:18:31;;;;;;;;;24.75;23.00;;;;;14.43;48.42;97397.25;6298439;27;96748;-61
2023/01/09 10:21:48;;;;;;;;;23.40;21.40;;;;;14.42;48.56;97396.44;6301756;27;96625;-62
2023/01/09 10:25:08;;;;;;;;;23.00;23.00;;;;;14.36;48.75;97386.75;6302849;27;96373;-61
2023/01/09 10:28:26;;;;;;;;;27.00;24.25;;;;;14.19;48.67;97360.00;6299786;27;97127;-60
2023/01/09 10:31:40;;;;;;;;;25.00;22.00;;;;;14.35;48.74;97370.72;6312872;27;96798;-60
2023/01/09 10:34:56;;;;;;;;;19.40;17.00;;;;;14.42;48.16;97373.94;6303897;27;96336;-61
2023/01/09 10:38:07;;;;;;;;;14.80;12.80;;;;;14.43;48.27;97359.28;6318250;27;96892;-61
2023/01/09 10:41:16;;;;;;;;;13.00;12.75;;;;;14.37;48.90;97353.09;6318527;27;96399;-60
2023/01/09 10:44:23;;;;;;;;;11.25;11.00;;;;;14.48;48.22;97348.41;6316939;27;96267;-60
2023/01/09 10:47:38;;;;;;;;;10.75;10.25;;;;;14.64;48.06;97342.59;6299400;27;96221;-61
2023/01/09 10:50:58;;;;;;;;;10.00;9.00;;;;;14.77;47.90;97343.81;6293513;27;96461;-61
2023/01/09 10:54:12;;;;;;;;;11.40;10.00;;;;;14.93;47.47;97341.75;6305222;27;96901;-61
2023/01/09 10:57:31;;;;;;;;;11.00;10.00;;;;;15.15;47.31;97332.00;6301588;27;96275;-60
2023/01/09 11:00:35;;;;;;;;;8.00;8.00;;;;;15.37;47.22;97328.78;6303124;27;96356;-61
2023/01/09 11:03:40;;;;;;;;;8.80;8.00;;;;;15.63;47.06;97328.50;6313645;27;96486;-60
2023/01/09 11:06:48;;;;;;;;;11.00;10.00;;;;;15.78;45.94;97329.09;6309929;27;96438;-63
2023/01/09 11:10:00;;;;;;;;;8.00;8.00;;;;;15.86;45.67;97322.19;6306845;27;96310;-62
2023/01/09 11:13:14;;;;;;;;;9.00;9.00;;;;;15.87;45.78;97319.19;6318109;27;96301;-62
2023/01/09 11:16:21;;;;;;;;;8.00;7.00;;;;;16.00;45.69;97329.31;6310757;27;97148;-62
2023/01/09 11:19:26;;;;;;;;;9.60;8.60;;;;;16.00;45.37;97323.88;6311105;27;96840;-62
2023/01/09 11:22:43;;;;;;;;;10.00;10.00;;;;;15.99;45.80;97324.16;6298549;27;96940;-60
2023/01/09 11:25:53;;;;;;;;;8.00;8.00;;;;;15.92;45.41;97315.59;6294610;27;97109;-60
2023/01/09 11:29:09;;;;;;;;;6.00;6.00;;;;;16.01;44.39;97327.41;6316278;27;96399;-62
2023/01/09 11:32:22;;;;;;;;;4.60;4.20;;;;;16.10;43.95;97313.94;6315239;27;96400;-61
2023/01/09 11:35:30;;;;;;;;;5.20;5.20;;;;;16.25;43.75;97317.25;6310339;27;96892;-61
2023/01/09 11:38:49;;;;;;;;;6.00;5.75;;;;;16.24;43.38;97307.47;6308479;27;96847;-62
2023/01/09 11:41:55;;;;;;;;;10.00;9.00;;;;;16.28;44.57;97308.47;6306966;27;98905;-61
2023/01/09 11:45:00;;;;;;;;;10.00;10.00;;;;;16.25;45.19;97308.28;6308343;27;96540;-62
2023/01/09 11:48:17;;;;;;;;;11.40;10.00;;;;;16.17;45.07;97306.25;6305624;27;96665;-62
2023/01/09 11:51:27;;;;;;;;;8.40;7.40;;;;;16.00;44.62;97296.69;6312142;27;96573;-61
2023/01/09 11:54:34;;;;;;;;;7.20;6.00;;;;;15.95;45.20;97304.13;6311469;27;96244;-62
2023/01/09 11:57:37;;;;;;;;;8.00;8.00;;;;;15.79;45.07;97300.81;6297270;27;97000;-62
2023/01/09 12:00:54;;;;;;;;;5.25;5.25;;;;;15.64;44.62;97321.97;6299793;27;97130;-61
2023/01/09 12:04:16;;;;;;;;;3.80;3.80;;;;;15.56;44.03;97310.63;6298596;27;97552;-61
2023/01/09 12:07:43;;;;;;;;;4.00;4.00;;;;;15.59;44.36;97303.81;6298746;27;96543;-62
2023/01/09 12:11:04;;;;;;;;;3.40;3.40;;;;;15.62;44.30;97299.72;6305134;27;96356;-61
2023/01/09 12:14:30;;;;;;;;;3.00;3.00;;;;;15.57;44.30;97295.16;6299664;27;97752;-61
2023/01/09 12:18:01;;;;;;;;;5.00;4.75;;;;;15.66;44.06;97282.53;6293380;27;98055;-62
2023/01/09 12:21:21;;;;;;;;;3.00;2.00;;;;;15.81;43.85;97292.38;6302049;27;96442;-60
2023/01/09 12:25:02;;;;;;;;;3.80;3.80;;;;;15.95;44.28;97287.81;6300253;27;96293;-60
2023/01/09 12:28:30;;;;;;;;;4.80;4.00;;;;;16.07;43.75;97301.78;6275224;27;96522;-60
2023/01/09 12:31:48;;;;;;;;;7.00;7.00;;;;;16.24;43.90;97301.22;6314744;27;96801;-61
2023/01/09 12:34:59;;;;;;;;;7.00;6.00;;;;;16.32;43.61;97295.91;6298973;27;96487;-61
2023/01/09 12:38:25;;;;;;;;;7.00;7.00;;;;;16.40;43.34;97302.59;6299977;27;96830;-61
2023/01/09 12:41:51;;;;;;;;;7.00;6.25;;;;;16.48;43.30;97293.75;6301126;27;96270;-61
2023/01/09 12:45:01;;;;;;;;;7.00;6.00;;;;;16.57;43.23;97299.31;6309055;27;96277;-61
2023/01/09 12:48:19;;;;;;;;;4.00;3.60;;;;;16.51;43.45;97285.00;6312154;27;96848;-61
2023/01/09 12:51:31;;;;;;;;;6.00;6.00;;;;;16.68;43.53;97295.34;6306691;27;96665;-60
2023/01/09 12:54:42;;;;;;;;;6.00;5.00;;;;;16.69;43.37;97292.31;6307340;27;98319;-60
2023/01/09 12:57:50;;;;;;;;;7.00;6.80;;;;;16.71;43.40;97300.19;6324578;27;95950;-60
2023/01/09 13:00:57;;;;;;;;;6.00;6.00;;;;;16.65;43.41;97295.94;6300920;27;96653;-59
2023/01/09 13:04:12;;;;;;;;;8.00;7.00;;;;;16.66;43.48;97295.66;6310605;27;96530;-60
2023/01/09 13:07:21;;;;;;;;;7.40;7.00;;;;;16.63;43.55;97295.44;6314534;27;96548;-61
2023/01/09 13:10:29;;;;;;;;;6.50;6.50;;;;;16.63;43.43;97306.31;6306610;27;96256;-60
2023/01/09 13:13:44;;;;;;;;;9.00;8.00;;;;;16.62;44.17;97288.38;6307628;27;96804;-64
2023/01/09 13:16:51;;;;;;;;;10.00;10.00;;;;;16.58;43.76;97285.44;6307071;27;96350;-61
2023/01/09 13:19:54;;;;;;;;;9.20;9.00;;;;;16.57;43.86;97289.22;6307744;27;96726;-61
2023/01/09 13:22:59;;;;;;;;;9.00;8.00;;;;;16.53;44.13;97296.38;6299900;27;97499;-62
2023/01/09 13:26:06;;;;;;;;;9.75;8.75;;;;;16.48;44.46;97294.56;6307693;27;96291;-62
2023/01/09 13:29:17;;;;;;;;;12.00;11.00;;;;;16.45;44.52;97292.44;6301881;27;96450;-61
2023/01/09 13:32:35;;;;;;;;;11.00;11.00;;;;;16.44;44.52;97290.81;6306963;27;97156;-59
2023/01/09 13:35:48;;;;;;;;;9.40;9.40;;;;;16.44;44.75;97288.09;6303686;27;96606;-60
2023/01/09 13:38:54;;;;;;;;;9.00;9.00;;;;;16.38;45.37;97291.19;6300867;27;96697;-61
2023/01/09 13:45:25;;;;;;;;;11.00;10.00;;;;;16.27;46.29;97296.00;6306580;27;96767;-62
2023/01/09 13:48:39;;;;;;;;;15.50;14.00;;;;;16.22;46.36;97298.81;6310472;27;96263;-61
2023/01/09 13:51:59;;;;;;;;;15.40;14.40;;;;;16.16;46.55;97304.63;6309092;27;96871;-61
2023/01/09 13:55:34;;;;;;;;;15.00;14.60;;;;;16.12;46.56;97317.19;6313638;27;96287;-61
2023/01/09 13:59:08;;;;;;;;;18.00;17.00;;;;;16.02;46.91;97320.88;6315736;27;96445;-61
2023/01/09 14:02:54;;;;;;;;;14.50;14.00;;;;;16.00;47.14;97333.94;6315455;27;97106;-60
2023/01/09 14:06:26;;;;;;;;;16.00;15.00;;;;;15.95;47.28;97348.41;6313767;27;96530;-62
2023/01/09 14:09:37;;;;;;;;;18.00;16.00;;;;;15.87;47.39;97349.06;6329437;27;96284;-61
2023/01/09 14:12:43;;;;;;;;;19.00;16.50;;;;;15.79;47.53;97351.63;6316305;27;97005;-60
2023/01/09 14:15:48;;;;;;;;;15.50;15.00;;;;;15.63;47.88;97344.78;6315384;27;96267;-61
2023/01/09 14:18:58;;;;;;;;;17.00;16.00;;;;;15.65;48.05;97359.69;6310514;27;96285;-60
2023/01/09 14:22:03;;;;;;;;;16.60;15.60;;;;;15.59;48.32;97372.53;6303368;27;96601;-60
2023/01/09 14:25:09;;;;;;;;;17.00;16.20;;;;;15.55;48.56;97371.50;6311954;27;97169;-62
2023/01/09 14:28:21;;;;;;;;;21.00;19.00;;;;;15.42;48.88;97366.72;6314416;27;98588;-61
2023/01/09 14:31:29;;;;;;;;;19.00;18.00;;;;;15.46;48.85;97370.47;6298392;27;96243;-60
2023/01/09 14:34:38;;;;;;;;;19.60;18.00;;;;;15.42;49.03;97382.22;6293791;27;96409;-62
2023/01/09 14:37:45;;;;;;;;;20.00;18.40;;;;;15.35;49.36;97382.56;6293953;27;96320;-61
2023/01/09 14:40:54;;;;;;;;;22.00;20.00;;;;;15.15;49.94;97361.06;6301990;27;97060;-61
2023/01/09 14:44:03;;;;;;;;;20.60;19.60;;;;;15.20;50.03;97381.94;6308834;27;96650;-62
2023/01/09 14:47:14;;;;;;;;;21.80;20.20;;;;;15.04;50.46;97365.81;6312684;27;96523;-61